createdAt,value
2022-08-23T00:02:22.920Z,3.20
2022-08-23T00:05:07.932Z,3.57
2022-08-23T00:07:39.473Z,3.30
2022-08-23T00:10:10.041Z,4.00
2022-08-23T00:12:37.874Z,3.20
2022-08-23T00:15:09.684Z,3.70
2022-08-23T00:17:37.038Z,4.03
2022-08-23T00:20:11.783Z,4.17
2022-08-23T00:22:40.042Z,3.40
2022-08-23T00:25:10.439Z,3.90
2022-08-23T00:27:38.250Z,3.97
2022-08-23T00:30:10.846Z,3.63
2022-08-23T00:32:39.745Z,3.10
2022-08-23T00:35:09.466Z,3.33
2022-08-23T00:37:38.035Z,4.30
2022-08-23T00:40:09.181Z,3.40
2022-08-23T00:43:09.559Z,3.70
2022-08-23T00:46:02.839Z,3.80
2022-08-23T00:48:30.714Z,3.87
2022-08-23T00:51:18.246Z,3.67
2022-08-23T00:53:53.940Z,3.27
2022-08-23T00:56:24.805Z,4.07
2022-08-23T00:58:53.594Z,3.73
2022-08-23T01:01:20.694Z,3.67
2022-08-23T01:04:04.494Z,3.43
2022-08-23T01:06:44.811Z,4.53
2022-08-23T01:09:17.796Z,3.77
2022-08-23T01:12:33.095Z,3.87
2022-08-23T01:15:20.280Z,3.77
2022-08-23T01:18:02.635Z,3.73
2022-08-23T01:20:39.108Z,3.20
2022-08-23T01:23:38.141Z,3.97
2022-08-23T01:26:06.519Z,3.83
2022-08-23T01:28:34.375Z,3.73
2022-08-23T01:31:02.579Z,3.70
2022-08-23T01:33:35.190Z,4.03
2022-08-23T01:36:04.305Z,4.80
2022-08-23T01:38:37.795Z,3.60
2022-08-23T01:41:06.878Z,3.83
2022-08-23T01:43:34.179Z,3.83
2022-08-23T01:46:11.089Z,4.17
2022-08-23T01:48:38.508Z,3.97
2022-08-23T01:51:06.056Z,3.97
2022-08-23T01:53:33.908Z,4.50
2022-08-23T01:56:03.764Z,4.67
2022-08-23T01:58:33.178Z,4.60
2022-08-23T02:01:02.009Z,4.03
2022-08-23T02:03:29.275Z,4.07
2022-08-23T02:05:57.717Z,4.03
2022-08-23T02:08:43.896Z,4.70
2022-08-23T02:11:15.663Z,4.10
2022-08-23T02:13:44.197Z,4.80
2022-08-23T02:16:14.822Z,4.93
2022-08-23T02:18:44.085Z,5.00
2022-08-23T02:21:11.002Z,4.83
2022-08-23T02:23:37.908Z,3.93
2022-08-23T02:26:07.079Z,4.60
2022-08-23T02:28:34.076Z,4.47
2022-08-23T02:31:01.207Z,4.47
2022-08-23T02:33:29.578Z,3.90
2022-08-23T02:35:56.641Z,4.30
2022-08-23T02:38:23.790Z,5.20
2022-08-23T02:40:53.052Z,4.50
2022-08-23T02:43:28.070Z,4.23
2022-08-23T02:45:55.099Z,4.70
2022-08-23T02:48:22.498Z,3.80
2022-08-23T02:50:49.928Z,4.10
2022-08-23T02:53:17.763Z,4.33
2022-08-23T02:55:48.262Z,4.40
2022-08-23T02:58:15.226Z,4.33
2022-08-23T03:00:47.080Z,4.10
2022-08-23T03:03:17.700Z,4.10
2022-08-23T03:05:45.504Z,4.00
2022-08-23T03:08:13.096Z,4.00
2022-08-23T03:10:45.600Z,3.93
2022-08-23T03:13:12.531Z,4.07
2022-08-23T03:15:40.948Z,3.93
2022-08-23T03:18:09.206Z,4.17
2022-08-23T03:20:36.407Z,4.10
2022-08-23T03:23:03.718Z,4.03
2022-08-23T03:25:30.839Z,4.23
2022-08-23T03:27:58.185Z,4.50
2022-08-23T03:30:25.261Z,4.63
2022-08-23T03:32:52.297Z,4.07
2022-08-23T03:35:19.387Z,4.40
2022-08-23T03:37:46.477Z,3.93
2022-08-23T03:40:14.029Z,4.07
2022-08-23T03:42:41.039Z,4.50
2022-08-23T03:45:08.449Z,4.60
2022-08-23T03:47:35.687Z,5.40
2022-08-23T03:50:02.613Z,4.20
2022-08-23T03:52:30.094Z,3.87
2022-08-23T03:54:57.412Z,5.17
2022-08-23T03:57:24.396Z,4.27
2022-08-23T03:59:51.426Z,5.00
2022-08-23T04:02:18.517Z,4.40
2022-08-23T04:04:45.544Z,4.00
2022-08-23T04:07:12.594Z,3.80
2022-08-23T04:09:39.522Z,4.70
2022-08-23T04:12:17.593Z,3.97
2022-08-23T04:14:45.731Z,4.33
2022-08-23T04:17:16.558Z,4.37
2022-08-23T04:19:43.861Z,4.40
2022-08-23T04:22:14.989Z,4.10
2022-08-23T04:24:42.848Z,4.30
2022-08-23T04:27:10.514Z,4.60
2022-08-23T04:29:39.973Z,4.50
2022-08-23T04:32:11.544Z,4.80
2022-08-23T04:34:45.790Z,4.50
2022-08-23T04:37:18.667Z,4.13
2022-08-23T04:40:04.500Z,4.50
2022-08-23T04:42:31.652Z,4.70
2022-08-23T04:44:58.712Z,4.73
2022-08-23T04:47:25.669Z,3.97
2022-08-23T04:49:52.615Z,4.53
2022-08-23T04:52:20.794Z,4.67
2022-08-23T04:54:47.854Z,4.07
2022-08-23T04:57:15.507Z,4.67
2022-08-23T04:59:43.912Z,4.60
2022-08-23T05:02:10.858Z,4.40
2022-08-23T05:04:37.797Z,4.20
2022-08-23T05:07:04.902Z,4.47
2022-08-23T05:09:32.010Z,4.70
2022-08-23T05:11:58.979Z,4.70
2022-08-23T05:14:26.147Z,4.10
2022-08-23T05:16:53.120Z,4.27
2022-08-23T05:19:20.460Z,4.50
2022-08-23T05:21:47.573Z,5.20
2022-08-23T05:24:14.768Z,4.70
2022-08-23T05:26:41.999Z,4.80
2022-08-23T05:29:09.335Z,4.60
2022-08-23T05:31:36.292Z,4.93
2022-08-23T05:34:03.769Z,4.70
2022-08-23T05:36:31.231Z,4.43
2022-08-23T05:38:58.587Z,5.00
2022-08-23T05:41:33.382Z,5.47
2022-08-23T05:44:05.119Z,4.90
2022-08-23T05:46:32.651Z,4.67
2022-08-23T05:48:59.668Z,5.23
2022-08-23T05:51:30.573Z,4.30
2022-08-23T05:54:04.950Z,5.20
2022-08-23T05:56:39.404Z,5.00
2022-08-23T05:59:12.702Z,4.67
2022-08-23T06:01:41.378Z,5.37
2022-08-23T06:04:12.581Z,4.80
2022-08-23T06:06:42.093Z,5.23
2022-08-23T06:09:13.225Z,4.10
2022-08-23T06:11:46.023Z,4.90
2022-08-23T06:14:13.433Z,5.87
2022-08-23T06:16:44.363Z,4.47
2022-08-23T06:19:12.012Z,4.57
2022-08-23T06:21:40.022Z,4.70
2022-08-23T06:24:07.316Z,4.80
2022-08-23T06:26:39.304Z,4.87
2022-08-23T06:29:12.206Z,4.60
2022-08-23T06:31:45.507Z,5.03
2022-08-23T06:34:25.418Z,4.70
2022-08-23T06:36:56.533Z,5.00
2022-08-23T06:39:28.431Z,4.97
2022-08-23T06:42:22.265Z,5.33
2022-08-23T06:44:53.870Z,4.43
2022-08-23T06:47:23.166Z,4.63
2022-08-23T06:49:57.917Z,4.30
2022-08-23T06:52:27.512Z,4.80
2022-08-23T06:54:55.059Z,4.57
2022-08-23T06:57:22.338Z,4.33
2022-08-23T06:59:50.122Z,4.83
2022-08-23T07:02:17.413Z,5.17
2022-08-23T07:04:44.870Z,5.10
2022-08-23T07:07:12.571Z,4.93
2022-08-23T07:09:40.699Z,4.97
2022-08-23T07:12:08.116Z,4.40
2022-08-23T07:14:36.994Z,4.57
2022-08-23T07:17:04.777Z,5.00
2022-08-23T07:19:34.512Z,4.30
2022-08-23T07:22:03.446Z,4.60
2022-08-23T07:24:33.491Z,5.10
2022-08-23T07:27:07.241Z,5.07
2022-08-23T07:29:37.423Z,4.50
2022-08-23T07:32:05.107Z,4.10
2022-08-23T07:34:32.609Z,4.50
2022-08-23T07:37:01.196Z,3.60
2022-08-23T07:39:29.600Z,4.90
2022-08-23T07:42:00.525Z,4.00
2022-08-23T07:44:28.176Z,3.80
2022-08-23T07:46:55.402Z,4.23
2022-08-23T07:49:23.055Z,4.40
2022-08-23T07:51:58.759Z,4.17
2022-08-23T07:54:27.904Z,3.70
2022-08-23T07:56:55.281Z,4.40
2022-08-23T07:59:22.282Z,4.23
2022-08-23T08:01:49.456Z,4.63
2022-08-23T08:04:16.577Z,4.63
2022-08-23T08:06:59.882Z,4.47
2022-08-23T08:09:27.135Z,4.13
2022-08-23T08:11:54.320Z,4.00
2022-08-23T08:14:21.414Z,4.03
2022-08-23T08:16:50.862Z,4.37
2022-08-23T08:19:19.805Z,4.60
2022-08-23T08:21:48.557Z,4.53
2022-08-23T08:24:18.149Z,4.70
2022-08-23T08:26:46.141Z,4.37
2022-08-23T08:29:14.334Z,4.00
2022-08-23T08:31:44.176Z,3.90
2022-08-23T08:34:12.412Z,4.00
2022-08-23T08:36:50.338Z,4.87
2022-08-23T08:39:25.131Z,4.03
2022-08-23T08:42:27.639Z,4.90
2022-08-23T08:45:01.292Z,3.90
2022-08-23T08:47:54.535Z,4.27
2022-08-23T08:50:27.938Z,4.93
2022-08-23T08:53:02.387Z,4.17
2022-08-23T08:55:38.750Z,4.43
2022-08-23T08:58:07.318Z,4.27
2022-08-23T09:00:38.755Z,3.93
2022-08-23T09:03:14.372Z,3.40
2022-08-23T09:05:59.990Z,4.07
2022-08-23T09:08:48.498Z,4.00
2022-08-23T09:11:40.313Z,3.40
2022-08-23T09:14:30.428Z,3.60
2022-08-23T09:17:05.919Z,3.70
2022-08-23T09:19:37.487Z,3.17
2022-08-23T09:22:13.409Z,3.20
2022-08-23T09:24:41.480Z,3.30
2022-08-23T09:27:10.595Z,2.80
2022-08-23T09:29:41.791Z,3.37
2022-08-23T09:32:33.828Z,3.20
2022-08-23T09:35:24.239Z,2.67
2022-08-23T09:38:02.249Z,3.33
2022-08-23T09:40:41.547Z,3.17
2022-08-23T09:43:16.127Z,3.10
2022-08-23T09:46:01.090Z,2.87
2022-08-23T09:48:39.942Z,3.30
2022-08-23T09:51:31.263Z,3.10
2022-08-23T09:54:12.909Z,3.03
2022-08-23T09:56:46.942Z,3.20
2022-08-23T09:59:22.277Z,3.20
2022-08-23T10:02:00.308Z,2.30
2022-08-23T10:04:47.304Z,2.53
2022-08-23T10:07:34.934Z,2.63
2022-08-23T10:10:35.839Z,2.30
2022-08-23T10:13:05.387Z,2.70
2022-08-23T10:15:58.761Z,2.70
2022-08-23T10:19:00.755Z,2.83
2022-08-23T10:22:16.814Z,2.30
2022-08-23T10:25:02.665Z,2.80
2022-08-23T10:28:14.308Z,3.40
2022-08-23T10:31:23.141Z,2.63
2022-08-23T10:34:24.327Z,2.60
2022-08-23T10:37:12.404Z,2.73
2022-08-23T10:40:30.425Z,3.03
2022-08-23T10:43:35.097Z,3.00
2022-08-23T10:46:03.014Z,2.50
2022-08-23T10:48:37.021Z,2.53
2022-08-23T10:51:33.412Z,2.23
2022-08-23T10:54:35.907Z,2.70
2022-08-23T10:57:04.883Z,2.97
2022-08-23T10:59:32.800Z,2.90
2022-08-23T11:02:25.769Z,2.47
2022-08-23T11:05:02.748Z,2.40
2022-08-23T11:07:37.446Z,2.40
2022-08-23T11:10:17.621Z,2.57
2022-08-23T11:13:08.514Z,2.47
2022-08-23T11:15:58.495Z,2.53
2022-08-23T11:18:41.978Z,2.60
2022-08-23T11:21:18.133Z,2.33
2022-08-23T11:23:54.293Z,2.40
2022-08-23T11:26:27.518Z,2.50
2022-08-23T11:29:21.315Z,2.80
2022-08-23T11:32:32.818Z,2.50
2022-08-23T11:35:27.444Z,2.60
2022-08-23T11:38:05.398Z,2.83
2022-08-23T11:40:50.854Z,2.60
2022-08-23T11:43:39.619Z,2.80
2022-08-23T11:46:28.413Z,2.27
2022-08-23T11:49:26.112Z,2.60
2022-08-23T11:52:16.434Z,2.50
2022-08-23T11:55:19.834Z,2.10
2022-08-23T11:58:21.034Z,2.80
2022-08-23T12:01:11.476Z,2.00
2022-08-23T12:04:10.493Z,2.07
2022-08-23T12:06:51.254Z,2.17
2022-08-23T12:09:24.329Z,2.03
2022-08-23T12:11:57.278Z,2.20
2022-08-23T12:14:42.831Z,2.20
2022-08-23T12:17:16.945Z,1.80
2022-08-23T12:19:56.380Z,2.17
2022-08-23T12:22:29.963Z,1.73
2022-08-23T12:25:08.383Z,1.83
2022-08-23T12:27:52.759Z,1.73
2022-08-23T12:30:31.812Z,2.37
2022-08-23T12:33:42.019Z,1.80
2022-08-23T12:36:46.180Z,1.93
2022-08-23T12:39:34.852Z,2.20
2022-08-23T12:42:15.850Z,1.70
2022-08-23T12:45:02.784Z,2.10
2022-08-23T12:47:29.950Z,2.00
2022-08-23T12:50:15.130Z,2.23
2022-08-23T12:52:42.599Z,2.00
2022-08-23T12:55:18.612Z,2.43
2022-08-23T12:57:56.476Z,1.97
2022-08-23T13:00:25.710Z,2.17
2022-08-23T13:03:06.073Z,2.00
2022-08-23T13:06:02.065Z,2.13
2022-08-23T13:08:52.691Z,1.97
2022-08-23T13:11:23.455Z,1.60
2022-08-23T13:13:50.475Z,1.80
2022-08-23T13:16:47.266Z,2.50
2022-08-23T13:19:24.071Z,1.83
2022-08-23T13:22:32.066Z,1.87
2022-08-23T13:25:28.009Z,1.90
2022-08-23T13:28:19.283Z,1.83
2022-08-23T13:31:05.562Z,1.90
2022-08-23T13:33:32.761Z,1.70
2022-08-23T13:36:13.675Z,1.83
2022-08-23T13:38:43.439Z,1.60
2022-08-23T13:41:27.414Z,1.90
2022-08-23T13:43:55.007Z,1.53
2022-08-23T13:46:29.356Z,1.70
2022-08-23T13:49:06.016Z,2.23
2022-08-23T13:51:39.381Z,1.90
2022-08-23T13:54:13.532Z,1.83
2022-08-23T13:56:55.635Z,1.90
2022-08-23T13:59:36.508Z,1.70
2022-08-23T14:02:14.265Z,1.83
2022-08-23T14:04:42.776Z,1.90
2022-08-23T14:07:10.872Z,1.70
2022-08-23T14:09:39.439Z,1.60
2022-08-23T14:12:13.483Z,1.87
2022-08-23T14:14:41.249Z,1.80
2022-08-23T14:17:10.663Z,1.93
2022-08-23T14:20:51.400Z,1.57
2022-08-23T14:22:27.691Z,1.80
2022-08-23T14:24:54.739Z,2.00
2022-08-23T14:27:21.780Z,1.53
2022-08-23T14:29:48.771Z,1.77
2022-08-23T14:32:15.759Z,1.63
2022-08-23T14:34:42.798Z,1.77
2022-08-23T14:39:56.963Z,1.40
2022-08-23T14:42:24.387Z,1.60
2022-08-23T14:44:51.456Z,1.70
2022-08-23T14:47:19.079Z,1.83
2022-08-23T14:49:46.173Z,1.63
2022-08-23T14:52:15.056Z,1.97
2022-08-23T14:54:42.295Z,1.50
2022-08-23T14:57:09.427Z,1.80
2022-08-23T14:59:36.547Z,1.57
2022-08-23T15:02:05.123Z,1.53
2022-08-23T15:04:34.443Z,1.70
2022-08-23T15:07:19.590Z,1.90
2022-08-23T15:09:49.842Z,1.83
2022-08-23T15:15:12.690Z,1.67
2022-08-23T15:17:52.368Z,1.30
2022-08-23T15:20:22.997Z,1.50
2022-08-23T15:23:05.362Z,1.40
2022-08-23T15:25:35.875Z,2.00
2022-08-23T15:28:08.514Z,1.60
2022-08-23T15:30:37.857Z,1.40
2022-08-23T15:33:07.037Z,1.40
2022-08-23T15:35:44.018Z,1.43
2022-08-23T15:38:14.507Z,1.63
2022-08-23T15:40:42.022Z,1.70
2022-08-23T15:43:09.146Z,1.53
2022-08-23T15:45:37.400Z,1.40
2022-08-23T15:48:16.441Z,1.50
2022-08-23T15:50:46.690Z,1.30
2022-08-23T15:53:15.407Z,1.43
2022-08-23T15:55:43.607Z,1.63
2022-08-23T15:58:31.902Z,1.63
2022-08-23T16:00:58.838Z,1.40
2022-08-23T16:03:25.970Z,1.80
2022-08-23T16:05:54.168Z,1.67
2022-08-23T16:08:27.423Z,1.60
2022-08-23T16:10:55.562Z,1.60
2022-08-23T16:13:24.932Z,1.40
2022-08-23T16:15:52.801Z,1.67
2022-08-23T16:18:19.948Z,1.40
2022-08-23T16:20:46.952Z,1.40
2022-08-23T16:23:13.976Z,1.30
2022-08-23T16:25:41.713Z,1.93
2022-08-23T16:28:08.899Z,2.07
2022-08-23T16:30:36.388Z,1.60
2022-08-23T16:33:04.144Z,1.37
2022-08-23T16:35:31.287Z,1.63
2022-08-23T16:37:58.372Z,1.53
2022-08-23T16:40:25.548Z,1.50
2022-08-23T16:42:52.812Z,1.50
2022-08-23T16:45:26.112Z,1.40
2022-08-23T16:47:53.672Z,1.80
2022-08-23T16:50:20.860Z,1.40
2022-08-23T16:52:47.765Z,1.77
2022-08-23T16:55:14.716Z,1.53
2022-08-23T16:57:42.119Z,1.50
2022-08-23T17:00:13.087Z,1.77
2022-08-23T17:02:40.957Z,1.30
2022-08-23T17:05:13.725Z,2.03
2022-08-23T17:07:40.676Z,1.90
2022-08-23T17:10:10.315Z,1.60
2022-08-23T17:12:41.551Z,1.50
2022-08-23T17:15:20.684Z,1.30
2022-08-23T17:17:48.530Z,1.50
2022-08-23T17:20:16.617Z,1.57
2022-08-23T17:22:43.581Z,1.70
2022-08-23T17:25:11.861Z,1.60
2022-08-23T17:27:45.469Z,1.43
2022-08-23T17:30:16.845Z,2.10
2022-08-23T17:32:47.684Z,1.77
2022-08-23T17:35:18.856Z,1.60
2022-08-23T17:37:50.900Z,1.40
2022-08-23T17:40:28.938Z,1.40
2022-08-23T17:42:57.136Z,1.60
2022-08-23T17:45:24.393Z,2.10
2022-08-23T17:47:51.399Z,1.57
2022-08-23T17:50:20.155Z,1.67
2022-08-23T17:52:47.132Z,2.23
2022-08-23T17:55:17.312Z,1.90
2022-08-23T17:57:47.256Z,1.80
2022-08-23T18:00:18.073Z,1.53
2022-08-23T18:02:45.119Z,1.80
2022-08-23T18:05:12.460Z,1.80
2022-08-23T18:07:40.027Z,1.80
2022-08-23T18:10:08.898Z,1.83
2022-08-23T18:12:36.003Z,2.20
2022-08-23T18:15:04.063Z,1.70
2022-08-23T18:17:32.629Z,1.53
2022-08-23T18:20:00.379Z,1.67
2022-08-23T18:22:27.826Z,1.67
2022-08-23T18:24:54.858Z,1.90
2022-08-23T18:27:40.534Z,1.63
2022-08-23T18:30:09.940Z,1.60
2022-08-23T18:32:37.286Z,1.90
2022-08-23T18:35:05.616Z,2.20
2022-08-23T18:37:32.626Z,2.10
2022-08-23T18:39:59.693Z,2.10
2022-08-23T18:42:26.937Z,2.07
2022-08-23T18:44:54.153Z,2.40
2022-08-23T18:47:21.308Z,2.00
2022-08-23T18:49:48.664Z,3.13
2022-08-23T18:52:15.964Z,2.60
2022-08-23T18:54:43.063Z,2.30
2022-08-23T18:57:15.989Z,3.00
2022-08-23T18:59:44.339Z,2.70
2022-08-23T19:02:11.552Z,2.57
2022-08-23T19:04:39.065Z,2.20
2022-08-23T19:07:06.013Z,2.40
2022-08-23T19:09:33.117Z,2.03
2022-08-23T19:12:00.907Z,2.13
2022-08-23T19:14:28.600Z,2.00
2022-08-23T19:16:55.837Z,2.20
2022-08-23T19:19:23.777Z,1.90
2022-08-23T19:21:50.890Z,1.90
2022-08-23T19:24:17.923Z,1.87
2022-08-23T19:26:47.468Z,2.37
2022-08-23T19:29:16.115Z,2.77
2022-08-23T19:31:46.642Z,2.30
2022-08-23T19:34:16.747Z,2.30
2022-08-23T19:36:48.094Z,2.50
2022-08-23T19:39:18.618Z,1.90
2022-08-23T19:41:47.235Z,2.23
2022-08-23T19:44:17.591Z,2.00
2022-08-23T19:46:45.603Z,2.43
2022-08-23T19:49:15.494Z,2.20
2022-08-23T19:51:43.795Z,1.80
2022-08-23T19:54:12.778Z,2.23
2022-08-23T19:56:49.791Z,2.73
2022-08-23T19:59:30.365Z,2.00
2022-08-23T20:01:59.181Z,2.17
2022-08-23T20:04:29.808Z,2.20
2022-08-23T20:06:58.372Z,2.50
2022-08-23T20:09:29.015Z,2.63
2022-08-23T20:11:57.299Z,2.60
2022-08-23T20:14:26.679Z,2.30
2022-08-23T20:16:54.672Z,2.33
2022-08-23T20:19:22.142Z,2.33
2022-08-23T20:21:49.365Z,3.47
2022-08-23T20:24:22.825Z,2.70
2022-08-23T20:26:59.691Z,2.40
2022-08-23T20:29:26.747Z,2.50
2022-08-23T20:31:59.632Z,2.40
2022-08-23T20:34:28.338Z,2.97
2022-08-23T20:36:56.268Z,2.30
2022-08-23T20:39:24.763Z,2.70
2022-08-23T20:41:53.476Z,2.30
2022-08-23T20:44:22.757Z,2.57
2022-08-23T20:46:54.188Z,2.63
2022-08-23T20:49:23.607Z,2.60
2022-08-23T20:51:51.367Z,2.87
2022-08-23T20:54:18.922Z,2.40
2022-08-23T20:56:46.166Z,2.90
2022-08-23T20:59:14.733Z,2.60
2022-08-23T21:01:41.931Z,2.53
2022-08-23T21:04:09.168Z,2.93
2022-08-23T21:06:54.388Z,2.67
2022-08-23T21:09:27.457Z,2.43
2022-08-23T21:11:57.054Z,2.87
2022-08-23T21:14:24.390Z,3.03
2022-08-23T21:16:52.115Z,2.43
2022-08-23T21:19:19.403Z,3.17
2022-08-23T21:21:47.066Z,3.00
2022-08-23T21:24:15.230Z,2.90
2022-08-23T21:26:42.804Z,3.17
2022-08-23T21:29:11.128Z,2.57
2022-08-23T21:31:38.907Z,2.40
2022-08-23T21:34:07.474Z,3.00
2022-08-23T21:36:35.732Z,2.87
2022-08-23T21:39:03.150Z,3.40
2022-08-23T21:41:41.585Z,3.20
2022-08-23T21:44:13.338Z,3.27
2022-08-23T21:46:41.105Z,2.73
2022-08-23T21:49:08.703Z,2.90
2022-08-23T21:51:39.823Z,3.13
2022-08-23T21:54:09.037Z,2.80
2022-08-23T21:56:37.137Z,2.90
2022-08-23T21:59:12.343Z,3.40
2022-08-23T22:01:41.526Z,3.30
2022-08-23T22:04:13.031Z,3.17
2022-08-23T22:06:43.417Z,3.40
2022-08-23T22:09:15.638Z,2.97
2022-08-23T22:11:46.300Z,3.47
2022-08-23T22:14:18.344Z,3.20
2022-08-23T22:16:45.327Z,3.30
2022-08-23T22:19:14.247Z,3.10
2022-08-23T22:21:42.583Z,3.67
2022-08-23T22:24:13.161Z,2.70
2022-08-23T22:26:42.727Z,3.13
2022-08-23T22:29:11.507Z,2.97
2022-08-23T22:31:39.795Z,2.97
2022-08-23T22:34:09.279Z,3.20
2022-08-23T22:36:37.031Z,3.20
2022-08-23T22:39:04.953Z,3.10
2022-08-23T22:41:32.413Z,3.57
2022-08-23T22:44:01.669Z,3.47
2022-08-23T22:46:31.392Z,2.83
2022-08-23T22:48:59.214Z,2.87
2022-08-23T22:51:33.860Z,3.23
2022-08-23T22:54:10.563Z,3.40
2022-08-23T22:56:45.742Z,3.20
2022-08-23T22:59:16.130Z,3.10
2022-08-23T23:01:48.776Z,3.40
2022-08-23T23:04:18.036Z,3.10
2022-08-23T23:06:46.795Z,3.43
2022-08-23T23:09:14.379Z,3.43
2022-08-23T23:11:42.719Z,2.90
2022-08-23T23:14:11.296Z,3.07
2022-08-23T23:16:39.462Z,3.27
2022-08-23T23:19:25.157Z,3.10
2022-08-23T23:21:55.681Z,3.20
2022-08-23T23:24:37.606Z,3.53
2022-08-23T23:27:05.432Z,2.67
2022-08-23T23:29:33.213Z,3.33
2022-08-23T23:32:00.604Z,3.60
2022-08-23T23:34:28.363Z,4.00
2022-08-23T23:36:57.817Z,3.10
2022-08-23T23:39:26.741Z,2.90
2022-08-23T23:41:54.779Z,3.40
2022-08-23T23:44:30.834Z,3.67
2022-08-23T23:47:00.892Z,3.47
2022-08-23T23:49:32.215Z,3.23
2022-08-23T23:52:05.070Z,3.43
2022-08-23T23:54:33.982Z,3.17
2022-08-23T23:57:01.746Z,3.07
2022-08-23T23:59:28.943Z,3.60
